Aeroporto :
LOGIN :

Iscrizione | Disclaimer

   EN    FR    IT 

 










Sommario :    VFR   VFR Marginale   IFR   IFR Intensivo   IFR Molto Intensivo
Visibilità : 
Base nubi : 
>= 8 km
>= 3000ft
5 / 8 km
1000 / 3000 ft
1500m / 5 km
500 / 1000 ft
800 / 1500m
200 / 500 ft
< 800m
< 200 ft
Simboli :   Temporali  Nebbia  Neve Forte  Precipitazioni Forti  Vento > 20 kt
SIGMETs :   Varie  Temporali  Ghiacco  Turbolenza  Onda orograficha  Ceneri Vulcaniche







- Altitudine del aeroporto : 412 ft
- Codice IATA : ORE
- Carte del aeroporto


LFOJ - Orleans

ULTIMO METAR :
  • 221230Z AUTO 36003KT 270V080 CAVOK 20/09 Q1020 NOSIG

METARs OBSOLETI :
  • 221200Z AUTO 31005KT 230V360 CAVOK 20/08 Q1020 NOSIG
  • 221130Z AUTO 32008KT 290V350 CAVOK 20/08 Q1021 NOSIG
  • 221100Z AUTO 33003KT 270V020 CAVOK 18/07 Q1021 NOSIG
  • 221030Z AUTO VRB04KT 9999 SCT048 19/08 Q1020 NOSIG
  • 221000Z AUTO 03005KT 360V060 CAVOK 20/08 Q1020 NOSIG

TAF TAF LFOJ
Valido dal 21 a 21 ore il 22 a 21 ore UTC


2121/2221 27005KT CAVOK
TEMPO 2123/2207 VRB02KT 4000 BR
PROB40
TEMPO 2202/2207 0500 FG VV///
Nessun NOTAM noto per questo aeroporto.



MetMap, La meteo Aeronautica in un colpo d'occhio ! - Copyright ORBIFLY Dicembre 2007 - Disclaimer

ORBIFLY MET'MAP TEAM :

Programmazione e sviluppo : Alexandra Zaïnal
Concezione e sviluppo : Baudouin d'Aumeries
Co-Programmazione e sviluppo : Marc-Olivier Méhu
Supporto tecnico e logistico : Manuel Goepfert
Aiuto per la traduzione : Arnaldo La Scala

Contatto : metmap@orbifly.com




FONTI E CREDITI :

   NOAA